Time;durP1;ratioP1;P1;durP2;ratioP2;P2;SDS_P1;SDS_P2;PMS_P1;PMS_P2;Temp;Humidity;BMP_temperature;BMP_pressure;BME280_temperature;BME280_humidity;BME280_pressure;Samples;Min_cycle;Max_cycle;Signal;HPM_P1;HPM_P2
2023/04/03 00:04:20;;;;;;;4.28;1.42;;;;;;;2.14;100.00;99426.44;15310249;19;20017;-80
2023/04/03 00:09:45;;;;;;;3.78;1.15;;;;;;;2.18;100.00;99427.13;15309025;19;20018;-80
2023/04/03 00:15:13;;;;;;;3.00;1.20;;;;;;;2.08;100.00;99429.41;15301028;19;20024;-79
2023/04/03 00:20:39;;;;;;;4.30;1.40;;;;;;;2.05;100.00;99431.38;15296489;19;20055;-80
2023/04/03 00:26:04;;;;;;;3.75;1.17;;;;;;;1.97;100.00;99443.28;15302781;19;20017;-82
2023/04/03 00:31:32;;;;;;;3.53;1.30;;;;;;;1.84;100.00;99435.09;15299003;19;20015;-81
2023/04/03 00:36:56;;;;;;;3.50;1.13;;;;;;;1.67;100.00;99433.31;15302181;19;20035;-80
2023/04/03 00:42:22;;;;;;;2.75;1.40;;;;;;;1.74;100.00;99436.50;15322256;19;20082;-80
2023/04/03 00:47:49;;;;;;;3.17;1.40;;;;;;;1.62;100.00;99435.38;15293171;19;20549;-79
2023/04/03 00:53:18;;;;;;;4.32;1.30;;;;;;;1.48;100.00;99433.41;15288436;19;20465;-81
2023/04/03 00:58:47;;;;;;;3.70;1.50;;;;;;;1.45;100.00;99449.50;15295984;19;20042;-80
2023/04/03 01:04:39;;;;;;;4.78;1.70;;;;;;;1.40;100.00;99440.91;15301432;19;20014;-79
2023/04/03 01:10:07;;;;;;;4.03;1.30;;;;;;;1.38;100.00;99448.09;15295926;19;20014;-79
2023/04/03 01:15:36;;;;;;;5.30;1.67;;;;;;;1.25;100.00;99453.16;15298679;19;20022;-81
2023/04/03 01:21:40;;;;;;;3.88;1.50;;;;;;;1.15;100.00;99449.25;15296512;19;20481;-78
2023/04/03 01:27:05;;;;;;;3.17;1.60;;;;;;;0.98;100.00;99460.69;15291267;19;20098;-84
2023/04/03 01:32:33;;;;;;;4.25;1.65;;;;;;;0.92;100.00;99462.69;15293124;19;20023;-82
2023/04/03 01:37:58;;;;;;;5.43;1.63;;;;;;;0.85;100.00;99458.63;15292492;19;20031;-78
2023/04/03 01:43:22;;;;;;;4.78;1.80;;;;;;;0.80;100.00;99463.28;15295088;19;20010;-79
2023/04/03 01:48:52;;;;;;;4.32;1.70;;;;;;;0.73;100.00;99472.50;15295880;19;20347;-78
2023/04/03 01:54:17;;;;;;;6.13;2.00;;;;;;;0.71;100.00;99471.69;15341694;19;20018;-81
2023/04/03 01:59:42;;;;;;;5.68;1.90;;;;;;;0.60;100.00;99473.06;15285911;19;20022;-79
2023/04/03 02:05:12;;;;;;;5.35;2.10;;;;;;;0.52;100.00;99479.66;15284030;19;20029;-78
2023/04/03 02:10:36;;;;;;;7.93;2.13;;;;;;;0.48;100.00;99478.06;15282710;19;20347;-81
2023/04/03 02:16:01;;;;;;;5.05;2.05;;;;;;;0.44;100.00;99482.66;15285742;19;20028;-78
2023/04/03 02:21:28;;;;;;;7.82;2.10;;;;;;;0.33;100.00;99487.59;15284827;19;20011;-78
2023/04/03 02:26:53;;;;;;;4.63;2.00;;;;;;;0.24;100.00;99484.44;15285557;19;20018;-78
2023/04/03 02:32:18;;;;;;;6.95;2.30;;;;;;;0.15;100.00;99483.06;15334063;19;20011;-79
2023/04/03 02:37:45;;;;;;;6.45;2.13;;;;;;;0.08;100.00;99491.34;15301069;19;20090;-77
2023/04/03 02:43:11;;;;;;;5.20;2.40;;;;;;;-0.05;100.00;99491.03;15282777;19;20011;-77
2023/04/03 02:48:36;;;;;;;6.35;2.30;;;;;;;-0.16;100.00;99502.09;15279429;19;20014;-79
2023/04/03 02:54:03;;;;;;;7.88;2.38;;;;;;;-0.19;100.00;99502.25;15281515;19;20465;-76
2023/04/03 02:59:31;;;;;;;5.28;1.95;;;;;;;-0.30;100.00;99501.84;15283915;19;20023;-78
2023/04/03 03:04:57;;;;;;;6.25;2.00;;;;;;;-0.42;100.00;99519.09;15282971;19;20014;-78
2023/04/03 03:10:25;;;;;;;7.20;2.00;;;;;;;-0.45;100.00;99509.50;15280505;19;20640;-76
2023/04/03 03:15:52;;;;;;;3.65;1.67;;;;;;;-0.47;100.00;99509.56;15278525;19;20035;-78
2023/04/03 03:21:16;;;;;;;6.45;2.00;;;;;;;-0.58;100.00;99519.72;15263456;19;20039;-77
2023/04/03 03:26:45;;;;;;;4.03;1.60;;;;;;;-0.62;100.00;99507.56;15283194;19;20043;-77
2023/04/03 03:32:11;;;;;;;5.68;1.65;;;;;;;-0.67;100.00;99509.53;15281484;19;20069;-77
2023/04/03 03:37:37;;;;;;;5.15;1.63;;;;;;;-0.74;100.00;99510.72;15295040;19;20082;-77
2023/04/03 03:43:05;;;;;;;3.90;1.42;;;;;;;-0.75;100.00;99517.78;15295101;19;20024;-77
2023/04/03 03:48:32;;;;;;;5.40;1.80;;;;;;;-0.84;100.00;99526.09;15293956;19;20011;-78
2023/04/03 03:53:56;;;;;;;3.63;1.40;;;;;;;-0.88;100.00;99538.59;15296119;19;20022;-78
2023/04/03 03:59:27;;;;;;;3.80;1.60;;;;;;;-0.95;100.00;99537.13;15293872;19;20014;-77
2023/04/03 04:04:51;;;;;;;5.57;1.58;;;;;;;-1.05;100.00;99539.25;15297466;19;20021;-76
2023/04/03 04:10:18;;;;;;;5.82;1.70;;;;;;;-1.12;100.00;99537.78;15289578;19;20643;-78
2023/04/03 04:15:46;;;;;;;5.97;1.70;;;;;;;-1.18;100.00;99543.31;15295383;19;20485;-78
2023/04/03 04:21:12;;;;;;;5.25;1.55;;;;;;;-1.25;100.00;99556.78;15294582;19;20035;-76
2023/04/03 04:26:37;;;;;;;7.07;2.03;;;;;;;-1.32;100.00;99555.25;15301148;19;20018;-78
2023/04/03 04:32:08;;;;;;;6.65;1.80;;;;;;;-1.28;100.00;99562.16;15343676;19;20031;-76
2023/04/03 04:37:34;;;;;;;4.55;1.75;;;;;;;-1.34;100.00;99570.31;15285043;19;20014;-76
2023/04/03 04:43:01;;;;;;;9.40;1.95;;;;;;;-1.32;100.00;99570.28;15288923;19;20015;-77
2023/04/03 04:48:29;;;;;;;6.90;2.38;;;;;;;-1.42;100.00;99580.31;15291529;19;20015;-77
2023/04/03 04:53:55;;;;;;;6.13;2.15;;;;;;;-1.35;100.00;99580.97;15294728;19;20560;-76
2023/04/03 04:59:20;;;;;;;8.45;1.90;;;;;;;-1.36;100.00;99589.81;15290766;19;20019;-78
2023/04/03 05:04:49;;;;;;;5.82;1.65;;;;;;;-1.31;100.00;99593.16;15292403;19;20022;-78
2023/04/03 05:10:15;;;;;;;6.60;1.83;;;;;;;-1.31;100.00;99599.28;15286641;19;21027;-79
2023/04/03 05:15:40;;;;;;;6.07;1.50;;;;;;;-1.30;100.00;99598.38;15289891;19;20017;-77
2023/04/03 05:21:10;;;;;;;4.88;2.00;;;;;;;-1.33;100.00;99595.84;15290980;19;20026;-77
2023/04/03 05:26:36;;;;;;;6.15;1.75;;;;;;;-1.39;100.00;99598.72;15291189;19;20502;-77
2023/04/03 05:32:01;;;;;;;6.68;2.00;;;;;;;-1.43;100.00;99605.91;15290684;19;20025;-78
2023/04/03 05:37:28;;;;;;;6.15;1.83;;;;;;;-1.42;100.00;99612.94;15293279;19;20344;-78
2023/04/03 05:42:54;;;;;;;6.60;2.20;;;;;;;-1.48;100.00;99620.22;15291849;19;20582;-77
2023/04/03 05:48:23;;;;;;;6.13;2.38;;;;;;;-1.46;100.00;99621.00;15289864;19;20033;-77
2023/04/03 05:53:53;;;;;;;4.32;1.85;;;;;;;-1.51;100.00;99623.81;15292005;19;20003;-77
2023/04/03 05:59:19;;;;;;;4.55;1.75;;;;;;;-1.45;100.00;99633.28;15299137;19;20035;-78
2023/04/03 06:04:47;;;;;;;4.15;1.63;;;;;;;-1.42;100.00;99628.78;15331711;19;20010;-78
2023/04/03 06:10:16;;;;;;;2.85;1.60;;;;;;;-1.45;100.00;99633.28;15326099;19;20659;-78
2023/04/03 06:15:41;;;;;;;5.18;1.70;;;;;;;-1.37;100.00;99644.47;15299853;19;20346;-77
2023/04/03 06:21:07;;;;;;;5.78;1.73;;;;;;;-1.35;100.00;99649.69;15288325;19;20028;-78
2023/04/03 06:26:36;;;;;;;5.18;1.70;;;;;;;-1.27;100.00;99645.00;15329487;19;20011;-78
2023/04/03 06:32:01;;;;;;;3.35;1.83;;;;;;;-1.20;100.00;99635.06;15301318;19;20018;-77
2023/04/03 06:37:28;;;;;;;5.28;1.60;;;;;;;-1.04;100.00;99645.91;15285689;19;20038;-76
2023/04/03 06:42:56;;;;;;;4.40;1.65;;;;;;;-1.05;100.00;99646.81;15283888;19;20018;-77
2023/04/03 06:48:23;;;;;;;4.50;1.48;;;;;;;-1.02;100.00;99650.25;15283156;19;20046;-77
2023/04/03 06:53:48;;;;;;;5.15;1.50;;;;;;;-0.99;100.00;99655.41;15282565;19;20010;-77
2023/04/03 06:59:16;;;;;;;5.35;2.13;;;;;;;-0.83;100.00;99662.78;15304169;19;20381;-76
2023/04/03 07:04:41;;;;;;;6.25;2.20;;;;;;;-0.78;100.00;99666.13;15353789;19;20018;-76
2023/04/03 07:10:07;;;;;;;5.32;2.22;;;;;;;-0.62;100.00;99671.69;15294740;19;20344;-76
2023/04/03 07:15:36;;;;;;;5.32;2.50;;;;;;;-0.44;100.00;99680.69;15298131;19;20017;-77
2023/04/03 07:21:02;;;;;;;3.75;2.10;;;;;;;-0.30;100.00;99677.47;15289056;19;20097;-78
2023/04/03 07:26:26;;;;;;;7.13;2.25;;;;;;;-0.19;100.00;99695.59;15290998;19;20082;-77
2023/04/03 07:31:55;;;;;;;6.60;3.17;;;;;;;-0.10;100.00;99695.22;15292828;19;20412;-78
2023/04/03 07:37:20;;;;;;;7.90;3.47;;;;;;;0.00;100.00;99701.03;15298357;19;20024;-78
2023/04/03 07:42:46;;;;;;;6.75;2.53;;;;;;;0.11;100.00;99690.84;15299076;19;20066;-76
2023/04/03 07:48:15;;;;;;;5.57;3.00;;;;;;;0.21;100.00;99687.81;15294000;19;20003;-76
2023/04/03 07:53:41;;;;;;;8.98;3.78;;;;;;;0.25;100.00;99707.94;15285805;19;20011;-77
2023/04/03 07:59:05;;;;;;;5.05;2.55;;;;;;;0.32;100.00;99697.94;15286339;19;20366;-75
2023/04/03 08:04:32;;;;;;;8.50;2.80;;;;;;;0.39;100.00;99704.72;15293464;19;20025;-76
2023/04/03 08:09:57;;;;;;;5.68;2.50;;;;;;;0.71;100.00;99703.31;15288431;19;20802;-75
2023/04/03 08:15:22;;;;;;;3.28;2.00;;;;;;;0.88;100.00;99707.88;15294484;19;20983;-77
2023/04/03 08:20:50;;;;;;;3.70;1.70;;;;;;;0.89;100.00;99701.63;15289213;19;20492;-75
2023/04/03 08:26:23;;;;;;;6.53;1.80;;;;;;;0.81;100.00;99693.16;15286239;19;20811;-76
2023/04/03 08:31:49;;;;;;;3.17;1.30;;;;;;;0.92;100.00;99706.81;15286790;19;20022;-75
2023/04/03 08:37:18;;;;;;;5.53;1.40;;;;;;;1.16;100.00;99692.53;15289672;19;20019;-77
2023/04/03 08:42:54;;;;;;;3.47;1.00;;;;;;;1.25;100.00;99701.84;15289217;19;20018;-76
2023/04/03 08:48:24;;;;;;;1.48;0.90;;;;;;;1.21;100.00;99703.78;15290977;19;20359;-77
2023/04/03 08:53:59;;;;;;;2.75;0.93;;;;;;;1.20;100.00;99699.41;15291050;19;20090;-76
2023/04/03 08:59:33;;;;;;;2.05;0.90;;;;;;;1.41;100.00;99696.72;15281492;19;20362;-76
2023/04/03 09:04:58;;;;;;;1.95;0.70;;;;;;;1.41;100.00;99705.53;15293079;19;20025;-76
2023/04/03 09:10:33;;;;;;;2.92;0.90;;;;;;;1.38;100.00;99721.59;15289290;19;20038;-77
2023/04/03 09:16:06;;;;;;;4.97;1.08;;;;;;;1.30;100.00;99721.94;15286306;19;20982;-76
2023/04/03 09:21:37;;;;;;;2.20;0.95;;;;;;;1.25;100.00;99720.44;15284562;19;20027;-76
2023/04/03 09:27:08;;;;;;;2.38;0.90;;;;;;;1.36;100.00;99718.13;15292847;19;20013;-77
2023/04/03 09:32:34;;;;;;;1.88;0.90;;;;;;;1.45;100.00;99715.09;15284883;19;20014;-76
2023/04/03 09:38:01;;;;;;;2.85;1.00;;;;;;;1.49;100.00;99716.66;15293559;19;20090;-75
2023/04/03 09:43:33;;;;;;;2.38;0.95;;;;;;;1.53;100.00;99715.56;15320704;19;20019;-77
2023/04/03 09:49:01;;;;;;;3.35;1.10;;;;;;;1.59;100.00;99706.47;15307328;19;20031;-76
2023/04/03 09:54:34;;;;;;;3.42;1.40;;;;;;;1.64;100.00;99700.94;15282797;19;20053;-77
2023/04/03 10:00:13;;;;;;;1.95;0.90;;;;;;;1.99;100.00;99693.91;15282058;19;20070;-77
2023/04/03 10:05:40;;;;;;;2.50;0.70;;;;;;;1.95;100.00;99696.78;15284077;19;20031;-76
2023/04/03 10:11:24;;;;;;;2.33;1.00;;;;;;;1.98;100.00;99691.31;15284307;19;20017;-77
2023/04/03 10:16:57;;;;;;;1.92;0.63;;;;;;;2.01;100.00;99685.88;15282444;19;20408;-79
2023/04/03 10:22:38;;;;;;;2.15;0.80;;;;;;;2.47;100.00;99680.88;15308320;19;20006;-75
2023/04/03 10:28:08;;;;;;;1.10;0.77;;;;;;;3.06;100.00;99668.97;15320309;19;20031;-75
2023/04/03 10:33:49;;;;;;;2.15;0.80;;;;;;;3.20;100.00;99681.56;15272530;19;20021;-78
2023/04/03 10:39:28;;;;;;;2.67;0.70;;;;;;;2.79;100.00;99677.50;15280716;19;20039;-78
2023/04/03 10:45:04;;;;;;;2.67;0.90;;;;;;;2.73;100.00;99676.03;15281791;19;19999;-80
2023/04/03 10:50:40;;;;;;;3.35;0.80;;;;;;;2.77;100.00;99669.56;15281471;19;20015;-76
2023/04/03 10:56:12;;;;;;;1.77;0.80;;;;;;;2.73;100.00;99665.38;15282136;19;20010;-76
2023/04/03 11:01:43;;;;;;;3.70;0.63;;;;;;;2.94;95.49;99646.53;15277167;19;20054;-77
2023/04/03 11:07:16;;;;;;;2.70;0.68;;;;;;;3.28;96.42;99655.34;15278314;19;20014;-77
2023/04/03 11:12:47;;;;;;;4.30;0.90;;;;;;;3.68;100.00;99649.59;15280614;19;20022;-78
2023/04/03 11:18:18;;;;;;;1.55;0.70;;;;;;;3.74;100.00;99648.38;15272721;19;20842;-77
2023/04/03 11:23:47;;;;;;;1.43;0.80;;;;;;;3.54;100.00;99642.38;15275634;19;20036;-76
2023/04/03 11:29:18;;;;;;;3.00;0.85;;;;;;;3.75;84.88;99648.31;15281633;19;20267;-78
2023/04/03 11:34:58;;;;;;;3.05;0.90;;;;;;;3.68;94.19;99645.13;15281962;19;20015;-76
2023/04/03 11:40:34;;;;;;;1.13;0.60;;;;;;;3.60;89.24;99636.69;15271282;19;20014;-77
2023/04/03 11:46:02;;;;;;;1.67;0.70;;;;;;;3.71;100.00;99638.75;15288595;19;20345;-76
2023/04/03 11:51:48;;;;;;;2.20;0.70;;;;;;;3.65;98.38;99634.66;15294374;19;20007;-77
2023/04/03 11:57:44;;;;;;;1.58;0.77;;;;;;;3.53;88.99;99622.00;15296525;19;20015;-76
2023/04/03 12:03:11;;;;;;;1.15;0.80;;;;;;;3.55;90.81;99628.97;15300035;19;20082;-76
2023/04/03 12:08:47;;;;;;;4.15;0.80;;;;;;;3.72;82.32;99621.84;15296378;19;20018;-76
2023/04/03 12:14:14;;;;;;;1.50;0.80;;;;;;;4.15;87.74;99605.97;15289880;19;20386;-78
2023/04/03 12:19:44;;;;;;;1.45;0.70;;;;;;;4.50;83.99;99612.84;15300798;19;20368;-78
2023/04/03 12:25:57;;;;;;;1.70;0.83;;;;;;;4.07;91.75;99607.38;15298035;19;20854;-77
2023/04/03 12:31:22;;;;;;;;;;;;;;;3.80;80.98;99611.56;15300987;19;20326;-78
2023/04/03 12:37:00;;;;;;;2.50;0.82;;;;;;;3.83;79.29;99605.19;15342223;19;19922;-76
2023/04/03 12:42:42;;;;;;;2.13;0.90;;;;;;;4.00;74.61;99591.75;15293079;19;20093;-77
2023/04/03 12:48:06;;;;;;;2.22;0.90;;;;;;;4.54;71.73;99593.00;15288929;19;20089;-77
2023/04/03 12:53:36;;;;;;;2.58;0.98;;;;;;;4.69;80.46;99593.88;15290202;19;20492;-78
2023/04/03 12:59:02;;;;;;;4.25;0.82;;;;;;;4.81;89.18;99580.72;15285150;19;20011;-78
2023/04/03 13:04:30;;;;;;;3.45;0.80;;;;;;;4.75;79.99;99589.97;15287764;19;20035;-80
2023/04/03 13:10:04;;;;;;;1.38;0.77;;;;;;;4.85;74.42;99587.56;15284033;19;20035;-78
2023/04/03 13:15:32;;;;;;;2.45;1.00;;;;;;;4.89;79.89;99586.44;15276290;19;20024;-78
2023/04/03 13:20:59;;;;;;;5.40;1.00;;;;;;;4.73;79.17;99581.19;15279103;19;20035;-78
2023/04/03 13:26:35;;;;;;;2.80;0.90;;;;;;;4.79;76.76;99572.78;15277278;19;20465;-78
2023/04/03 13:32:01;;;;;;;1.75;1.00;;;;;;;4.55;81.42;99570.69;15284177;19;20019;-78
2023/04/03 13:37:33;;;;;;;4.22;1.20;;;;;;;4.79;90.57;99575.47;15285853;19;20142;-83
2023/04/03 13:43:07;;;;;;;2.77;1.00;;;;;;;4.96;88.43;99574.41;15288360;19;20409;-80
2023/04/03 13:48:31;;;;;;;2.78;0.90;;;;;;;5.46;78.00;99582.81;15283842;19;20017;-80
2023/04/03 13:53:58;;;;;;;2.15;0.90;;;;;;;5.24;69.84;99568.16;15288511;19;20022;-81
2023/04/03 13:59:36;;;;;;;3.20;1.05;;;;;;;5.46;67.97;99564.09;15285719;19;20021;-79
2023/04/03 14:05:03;;;;;;;2.15;0.85;;;;;;;5.15;71.60;99575.91;15285053;19;20018;-80
2023/04/03 14:10:29;;;;;;;1.45;0.65;;;;;;;4.85;70.37;99567.09;15289335;19;20023;-80
2023/04/03 14:16:00;;;;;;;1.40;0.90;;;;;;;4.61;68.54;99561.44;15287134;19;20018;-78
2023/04/03 14:21:33;;;;;;;1.40;0.77;;;;;;;4.77;75.80;99558.66;15336132;19;20014;-82
2023/04/03 14:27:06;;;;;;;2.85;1.00;;;;;;;4.50;82.24;99567.47;15291951;19;20404;-78
2023/04/03 14:32:36;;;;;;;1.85;0.80;;;;;;;4.29;86.80;99562.47;15277109;19;20014;-79
2023/04/03 14:38:02;;;;;;;3.28;0.90;;;;;;;4.23;91.12;99560.19;15286705;19;20010;-77
2023/04/03 14:43:27;;;;;;;2.00;0.90;;;;;;;4.26;86.47;99553.78;15290771;19;20354;-79
2023/04/03 14:48:58;;;;;;;2.17;0.90;;;;;;;4.54;84.62;99549.44;15285440;19;20481;-78
2023/04/03 14:54:28;;;;;;;1.63;0.80;;;;;;;4.83;75.87;99546.75;15288842;19;20021;-79
2023/04/03 14:59:54;;;;;;;1.63;0.77;;;;;;;4.65;78.97;99544.28;15289269;19;20007;-77
2023/04/03 15:05:22;;;;;;;1.63;0.80;;;;;;;4.47;73.07;99547.13;15291628;19;20017;-79
2023/04/03 15:10:46;;;;;;;2.38;0.80;;;;;;;4.45;77.89;99538.41;15289713;19;20006;-78
2023/04/03 15:16:18;;;;;;;3.25;0.77;;;;;;;4.51;75.94;99547.84;15290055;19;20025;-80
2023/04/03 15:21:48;;;;;;;2.22;1.00;;;;;;;4.44;85.41;99544.69;15301852;19;20022;-79
2023/04/03 15:27:20;;;;;;;1.90;0.90;;;;;;;4.32;85.23;99543.59;15307992;19;20035;-79
2023/04/03 15:32:45;;;;;;;2.33;1.00;;;;;;;4.35;90.87;99542.56;15346039;19;20018;-79
2023/04/03 15:38:13;;;;;;;2.08;0.90;;;;;;;4.27;94.87;99543.06;15319516;19;20034;-78
2023/04/03 15:43:38;;;;;;;2.00;0.75;;;;;;;4.07;87.54;99546.03;15300305;19;20015;-79
2023/04/03 15:49:02;;;;;;;1.85;0.80;;;;;;;3.85;91.13;99544.66;15299285;19;20496;-78
2023/04/03 15:54:30;;;;;;;1.40;0.73;;;;;;;3.64;82.41;99550.31;15303567;19;20093;-79
2023/04/03 15:59:54;;;;;;;2.33;0.80;;;;;;;3.60;77.73;99546.09;15282790;19;20361;-78
2023/04/03 16:05:20;;;;;;;2.55;0.98;;;;;;;3.59;79.69;99549.69;15288186;19;20014;-76
2023/04/03 16:10:47;;;;;;;2.38;0.85;;;;;;;3.57;84.48;99548.09;15284137;19;20018;-76
2023/04/03 16:16:13;;;;;;;2.15;0.90;;;;;;;3.52;86.02;99537.69;15283124;19;20035;-77
2023/04/03 16:21:38;;;;;;;1.67;0.82;;;;;;;3.36;94.90;99546.56;15283867;19;20020;-76
2023/04/03 16:27:12;;;;;;;1.60;0.80;;;;;;;3.18;93.02;99551.13;15283721;19;20010;-79
2023/04/03 16:32:39;;;;;;;1.45;0.93;;;;;;;3.15;93.37;99547.78;15285002;19;20023;-76
2023/04/03 16:38:04;;;;;;;0.80;0.80;;;;;;;3.11;92.48;99551.56;15287394;19;20014;-76
2023/04/03 16:43:33;;;;;;;1.02;0.65;;;;;;;2.98;82.36;99548.72;15285442;19;20046;-77
2023/04/03 16:48:57;;;;;;;1.33;0.70;;;;;;;2.88;84.95;99559.03;15286647;19;20449;-77
2023/04/03 16:54:46;;;;;;;0.93;0.70;;;;;;;2.83;80.99;99551.28;15290875;19;20027;-77
2023/04/03 17:00:16;;;;;;;1.50;0.85;;;;;;;2.76;84.04;99556.06;15285499;19;20046;-78
2023/04/03 17:05:52;;;;;;;1.40;0.73;;;;;;;2.78;97.66;99553.34;15292644;19;20062;-77
2023/04/03 17:11:17;;;;;;;6.47;2.45;;;;;;;2.64;97.81;99562.09;15291712;19;20275;-78
2023/04/03 17:16:44;;;;;;;1.85;0.93;;;;;;;2.53;100.00;99553.81;15290217;19;20037;-78
2023/04/03 17:22:10;;;;;;;1.40;0.70;;;;;;;2.49;98.38;99544.28;15292132;19;20023;-78
2023/04/03 17:27:35;;;;;;;1.60;0.77;;;;;;;2.45;100.00;99556.88;15293742;19;20022;-77
2023/04/03 17:33:02;;;;;;;2.60;0.90;;;;;;;2.41;100.00;99572.13;15291610;19;20413;-78
2023/04/03 17:38:27;;;;;;;1.70;0.80;;;;;;;2.25;97.94;99560.59;15291070;19;20050;-77
2023/04/03 17:43:55;;;;;;;1.20;0.70;;;;;;;2.20;100.00;99562.63;15295359;19;20014;-79
2023/04/03 17:49:23;;;;;;;2.42;0.95;;;;;;;2.21;100.00;99567.00;15298369;19;20109;-80
2023/04/03 17:54:48;;;;;;;2.47;0.75;;;;;;;2.12;100.00;99569.22;15296125;19;20029;-78
2023/04/03 18:00:15;;;;;;;1.40;0.90;;;;;;;2.06;100.00;99572.16;15297332;19;20014;-79
2023/04/03 18:05:43;;;;;;;2.30;1.00;;;;;;;1.98;100.00;99569.94;15296113;19;20007;-77
2023/04/03 18:11:08;;;;;;;2.55;0.75;;;;;;;2.01;100.00;99579.53;15339364;19;20014;-75
2023/04/03 18:16:38;;;;;;;1.63;0.77;;;;;;;2.01;100.00;99579.53;15305169;19;20015;-78
2023/04/03 18:22:13;;;;;;;2.50;0.90;;;;;;;1.93;100.00;99579.91;15343838;19;20013;-76
2023/04/03 18:27:44;;;;;;;1.33;0.80;;;;;;;1.97;100.00;99577.97;15293693;19;20039;-76
2023/04/03 18:33:09;;;;;;;0.90;0.70;;;;;;;1.94;100.00;99588.78;15296840;19;20135;-77
2023/04/03 18:38:36;;;;;;;1.65;0.80;;;;;;;1.86;100.00;99586.50;15288852;19;20010;-77
2023/04/03 18:44:05;;;;;;;3.88;0.90;;;;;;;1.81;100.00;99581.41;15293859;19;20022;-77
2023/04/03 18:49:29;;;;;;;1.98;0.90;;;;;;;1.82;100.00;99580.44;15292229;19;20023;-76
2023/04/03 18:54:57;;;;;;;2.25;1.00;;;;;;;1.81;100.00;99584.06;15281152;19;20078;-76
2023/04/03 19:00:22;;;;;;;1.15;0.75;;;;;;;1.80;100.00;99581.47;15287025;19;20070;-77
2023/04/03 19:05:47;;;;;;;1.67;1.00;;;;;;;1.75;100.00;99576.38;15282936;19;20010;-76
2023/04/03 19:11:15;;;;;;;0.80;0.60;;;;;;;1.76;100.00;99586.09;15271336;19;20022;-76
2023/04/03 19:16:40;;;;;;;1.08;0.70;;;;;;;1.77;100.00;99587.81;15272859;19;20021;-78
2023/04/03 19:22:05;;;;;;;1.27;0.93;;;;;;;1.78;100.00;99584.22;15280135;19;20035;-79
2023/04/03 19:27:40;;;;;;;1.50;0.82;;;;;;;1.77;100.00;99582.50;15276321;19;20015;-77
2023/04/03 19:33:06;;;;;;;2.63;0.95;;;;;;;1.79;100.00;99582.41;15280934;19;20070;-78
2023/04/03 19:38:31;;;;;;;1.58;0.93;;;;;;;1.82;100.00;99590.22;15281016;19;20034;-78
2023/04/03 19:43:59;;;;;;;4.30;0.90;;;;;;;1.79;100.00;99591.25;15275589;19;20027;-76
2023/04/03 19:49:23;;;;;;;1.38;0.95;;;;;;;1.79;100.00;99588.59;15273635;19;20618;-77
2023/04/03 19:54:48;;;;;;;1.60;0.80;;;;;;;1.75;100.00;99587.03;15276572;19;20015;-76
2023/04/03 20:00:16;;;;;;;3.70;0.90;;;;;;;1.75;100.00;99591.47;15275870;19;20014;-77
2023/04/03 20:05:41;;;;;;;1.75;0.90;;;;;;;1.74;100.00;99587.94;15281846;19;20025;-76
2023/04/03 20:11:05;;;;;;;2.28;1.00;;;;;;;1.73;100.00;99588.88;15288475;19;20018;-77
2023/04/03 20:16:33;;;;;;;1.77;0.90;;;;;;;1.72;100.00;99588.97;15281311;19;20019;-77
2023/04/03 20:21:58;;;;;;;1.52;0.80;;;;;;;1.74;100.00;99587.94;15287753;19;20046;-77
2023/04/03 20:27:30;;;;;;;2.22;0.82;;;;;;;1.69;100.00;99574.06;15284542;19;20021;-77
2023/04/03 20:32:58;;;;;;;1.05;0.90;;;;;;;1.71;100.00;99574.81;15293934;19;20042;-76
2023/04/03 20:38:24;;;;;;;1.08;0.70;;;;;;;1.67;100.00;99575.91;15286281;19;20026;-77
2023/04/03 20:43:49;;;;;;;1.10;0.80;;;;;;;1.76;100.00;99575.47;15268502;19;20028;-77
2023/04/03 20:49:17;;;;;;;3.05;1.00;;;;;;;1.69;100.00;99579.38;15287884;19;20020;-77
2023/04/03 20:54:42;;;;;;;2.60;0.80;;;;;;;1.66;100.00;99579.50;15294760;19;20038;-78
2023/04/03 21:00:08;;;;;;;1.95;0.90;;;;;;;1.67;100.00;99573.25;15295852;19;20098;-77
2023/04/03 21:05:37;;;;;;;1.67;0.90;;;;;;;1.67;100.00;99570.59;15349514;19;20014;-77
2023/04/03 21:11:31;;;;;;;1.23;0.77;;;;;;;1.64;100.00;99568.09;15287150;19;20096;-76
2023/04/03 21:16:56;;;;;;;2.45;0.80;;;;;;;1.64;100.00;99554.81;15280242;19;20021;-76
2023/04/03 21:22:24;;;;;;;2.05;0.82;;;;;;;1.65;100.00;99561.84;15278853;19;20010;-75
2023/04/03 21:27:57;;;;;;;1.67;1.05;;;;;;;1.61;100.00;99565.59;15283325;19;20023;-74
2023/04/03 21:33:23;;;;;;;1.35;0.82;;;;;;;1.54;100.00;99559.72;15285163;19;20014;-75
2023/04/03 21:38:51;;;;;;;2.60;1.00;;;;;;;1.52;100.00;99565.13;15284616;19;20082;-76
2023/04/03 21:44:17;;;;;;;1.27;1.00;;;;;;;1.51;100.00;99560.72;15286742;19;20082;-75
2023/04/03 21:49:42;;;;;;;1.80;0.90;;;;;;;1.38;100.00;99557.84;15286735;19;20402;-77
2023/04/03 21:55:14;;;;;;;3.63;1.00;;;;;;;1.30;100.00;99562.63;15286962;19;20018;-76
2023/04/03 22:00:41;;;;;;;2.00;1.02;;;;;;;1.14;100.00;99549.25;15303841;19;20028;-77
2023/04/03 22:06:06;;;;;;;2.40;1.05;;;;;;;1.06;100.00;99546.09;15328262;19;20010;-77
2023/04/03 22:11:37;;;;;;;1.73;0.80;;;;;;;0.99;100.00;99539.38;15282537;19;20015;-76
2023/04/03 22:17:02;;;;;;;1.65;0.82;;;;;;;0.96;100.00;99544.81;15281603;19;20014;-77
2023/04/03 22:22:27;;;;;;;1.33;0.90;;;;;;;0.97;100.00;99538.59;15282283;19;20489;-76
2023/04/03 22:28:01;;;;;;;1.50;1.00;;;;;;;0.96;100.00;99520.94;15277698;19;20042;-76
2023/04/03 22:33:26;;;;;;;1.60;0.80;;;;;;;0.99;100.00;99518.16;15280536;19;20564;-76
2023/04/03 22:38:50;;;;;;;1.20;1.00;;;;;;;1.00;100.00;99522.53;15276517;19;20017;-77
2023/04/03 22:44:18;;;;;;;1.48;1.00;;;;;;;1.03;100.00;99525.00;15282893;19;20528;-77
2023/04/03 22:49:48;;;;;;;1.20;0.90;;;;;;;1.05;100.00;99517.84;15282917;19;20002;-77
2023/04/03 22:55:13;;;;;;;3.88;1.00;;;;;;;1.07;100.00;99516.81;15277393;19;20002;-77
2023/04/03 23:00:42;;;;;;;1.20;0.90;;;;;;;1.11;100.00;99514.03;15279059;19;20067;-76
2023/04/03 23:06:08;;;;;;;2.63;1.02;;;;;;;1.14;100.00;99520.03;15280680;19;20015;-77
2023/04/03 23:11:32;;;;;;;2.33;0.98;;;;;;;1.13;100.00;99520.97;15276718;19;20058;-76
2023/04/03 23:17:04;;;;;;;1.27;1.00;;;;;;;1.08;100.00;99513.25;15277030;19;20353;-76
2023/04/03 23:22:28;;;;;;;1.50;1.00;;;;;;;1.09;100.00;99511.47;15280373;19;20010;-76
2023/04/03 23:28:03;;;;;;;1.83;0.95;;;;;;;1.08;100.00;99515.03;15273814;19;20473;-77
2023/04/03 23:33:31;;;;;;;1.55;0.90;;;;;;;1.08;100.00;99505.28;15280363;19;20007;-76
2023/04/03 23:38:59;;;;;;;1.20;0.75;;;;;;;1.09;100.00;99511.47;15276767;19;20026;-76
2023/04/03 23:44:24;;;;;;;1.42;0.70;;;;;;;1.07;100.00;99514.16;15296981;19;20021;-76
2023/04/03 23:49:51;;;;;;;1.92;0.82;;;;;;;1.08;100.00;99509.75;15325375;19;20021;-76
2023/04/03 23:55:10;;;;;;;1.70;0.90;;;;;;;1.07;100.00;99508.00;15320107;19;20469;-76
